sensor_id;sensor_type;location;lat;lon;timestamp;pressure;altitude;pressure_sealevel;temperature;humidity
45255;BME280;30989;52.078;21.014;2023-05-19T00:01:35;166399.75;;;10.09;100.00
45255;BME280;30989;52.078;21.014;2023-05-19T00:04:02;166397.06;;;10.08;100.00
45255;BME280;30989;52.078;21.014;2023-05-19T00:06:31;166397.06;;;10.08;100.00
45255;BME280;30989;52.078;21.014;2023-05-19T00:09:02;166383.66;;;10.02;100.00
45255;BME280;30989;52.078;21.014;2023-05-19T00:11:28;166391.72;;;10.06;100.00
45255;BME280;30989;52.078;21.014;2023-05-19T00:13:56;166376.97;;;10.00;100.00
45255;BME280;30989;52.078;21.014;2023-05-19T00:16:23;166375.63;;;9.99;100.00
45255;BME280;30989;52.078;21.014;2023-05-19T00:18:49;166383.66;;;10.02;100.00
45255;BME280;30989;52.078;21.014;2023-05-19T00:21:16;166375.63;;;9.99;100.00
45255;BME280;30989;52.078;21.014;2023-05-19T00:23:41;166378.31;;;10.00;100.00
45255;BME280;30989;52.078;21.014;2023-05-19T00:26:07;166368.94;;;9.97;100.00
45255;BME280;30989;52.078;21.014;2023-05-19T00:28:32;166375.63;;;9.99;100.00
45255;BME280;30989;52.078;21.014;2023-05-19T00:30:57;166375.63;;;9.99;100.00
45255;BME280;30989;52.078;21.014;2023-05-19T00:33:23;166376.97;;;10.00;100.00
45255;BME280;30989;52.078;21.014;2023-05-19T00:35:48;166370.28;;;9.97;100.00
45255;BME280;30989;52.078;21.014;2023-05-19T00:38:14;166375.63;;;9.99;100.00
45255;BME280;30989;52.078;21.014;2023-05-19T00:40:39;166370.28;;;9.97;100.00
45255;BME280;30989;52.078;21.014;2023-05-19T00:43:05;166375.63;;;9.99;100.00
45255;BME280;30989;52.078;21.014;2023-05-19T00:45:33;166382.34;;;10.02;100.00
45255;BME280;30989;52.078;21.014;2023-05-19T00:47:58;166378.31;;;10.00;100.00
45255;BME280;30989;52.078;21.014;2023-05-19T00:50:24;166367.59;;;9.96;100.00
45255;BME280;30989;52.078;21.014;2023-05-19T00:52:51;166344.84;;;9.88;100.00
45255;BME280;30989;52.078;21.014;2023-05-19T00:55:18;166351.53;;;9.90;100.00
45255;BME280;30989;52.078;21.014;2023-05-19T00:57:45;166343.50;;;9.87;100.00
45255;BME280;30989;52.078;21.014;2023-05-19T01:00:12;166328.78;;;9.82;100.00
45255;BME280;30989;52.078;21.014;2023-05-19T01:02:37;166324.78;;;9.80;100.00
45255;BME280;30989;52.078;21.014;2023-05-19T01:05:05;166314.06;;;9.76;100.00
45255;BME280;30989;52.078;21.014;2023-05-19T01:07:31;166303.34;;;9.72;100.00
45255;BME280;30989;52.078;21.014;2023-05-19T01:09:57;166306.03;;;9.73;100.00
45255;BME280;30989;52.078;21.014;2023-05-19T01:12:23;166292.63;;;9.68;100.00
45255;BME280;30989;52.078;21.014;2023-05-19T01:14:49;166292.63;;;9.68;100.00
45255;BME280;30989;52.078;21.014;2023-05-19T01:25:14;166272.56;;;9.60;100.00
45255;BME280;30989;52.078;21.014;2023-05-19T01:28:17;166273.91;;;9.61;100.00
45255;BME280;30989;52.078;21.014;2023-05-19T01:30:47;166264.53;;;9.57;100.00
45255;BME280;30989;52.078;21.014;2023-05-19T01:33:15;166271.22;;;9.60;100.00
45255;BME280;30989;52.078;21.014;2023-05-19T01:35:42;166276.56;;;9.62;100.00
45255;BME280;30989;52.078;21.014;2023-05-19T01:38:11;166273.91;;;9.61;100.00
45255;BME280;30989;52.078;21.014;2023-05-19T01:40:39;166272.56;;;9.60;100.00
45255;BME280;30989;52.078;21.014;2023-05-19T01:43:08;166268.53;;;9.59;100.00
45255;BME280;30989;52.078;21.014;2023-05-19T01:45:36;166259.19;;;9.55;100.00
45255;BME280;30989;52.078;21.014;2023-05-19T01:48:03;166265.88;;;9.58;100.00
45255;BME280;30989;52.078;21.014;2023-05-19T01:50:29;166257.84;;;9.55;100.00
45255;BME280;30989;52.078;21.014;2023-05-19T01:52:55;166247.13;;;9.51;100.00
45255;BME280;30989;52.078;21.014;2023-05-19T01:55:21;166249.81;;;9.52;100.00
45255;BME280;30989;52.078;21.014;2023-05-19T01:58:11;166244.44;;;9.50;100.00
45255;BME280;30989;52.078;21.014;2023-05-19T02:01:00;166211.00;;;9.37;100.00
45255;BME280;30989;52.078;21.014;2023-05-19T02:06:40;166223.03;;;9.42;100.00
45255;BME280;30989;52.078;21.014;2023-05-19T02:09:15;166213.66;;;9.38;100.00
45255;BME280;30989;52.078;21.014;2023-05-19T02:14:28;166212.34;;;9.37;100.00
45255;BME280;30989;52.078;21.014;2023-05-19T02:16:56;166209.66;;;9.36;100.00
45255;BME280;30989;52.078;21.014;2023-05-19T02:21:50;166204.31;;;9.34;100.00
45255;BME280;30989;52.078;21.014;2023-05-19T02:24:16;166202.97;;;9.34;100.00
45255;BME280;30989;52.078;21.014;2023-05-19T02:26:42;166192.25;;;9.30;100.00
45255;BME280;30989;52.078;21.014;2023-05-19T02:29:08;166198.94;;;9.32;100.00
45255;BME280;30989;52.078;21.014;2023-05-19T02:31:33;166190.91;;;9.29;100.00
45255;BME280;30989;52.078;21.014;2023-05-19T02:33:59;166190.91;;;9.29;100.00
45255;BME280;30989;52.078;21.014;2023-05-19T02:36:24;166196.28;;;9.31;100.00
45255;BME280;30989;52.078;21.014;2023-05-19T02:38:50;166172.19;;;9.22;100.00
45255;BME280;30989;52.078;21.014;2023-05-19T02:41:16;166198.94;;;9.32;100.00
45255;BME280;30989;52.078;21.014;2023-05-19T02:43:41;166197.63;;;9.32;100.00
45255;BME280;30989;52.078;21.014;2023-05-19T02:46:07;166190.91;;;9.29;100.00
45255;BME280;30989;52.078;21.014;2023-05-19T02:48:32;166186.91;;;9.28;100.00
45255;BME280;30989;52.078;21.014;2023-05-19T02:50:58;166189.59;;;9.29;100.00
45255;BME280;30989;52.078;21.014;2023-05-19T02:53:23;166197.63;;;9.32;100.00
45255;BME280;30989;52.078;21.014;2023-05-19T02:55:48;166189.59;;;9.29;100.00
45255;BME280;30989;52.078;21.014;2023-05-19T02:58:14;166197.63;;;9.32;100.00
45255;BME280;30989;52.078;21.014;2023-05-19T03:00:39;166201.63;;;9.33;100.00
45255;BME280;30989;52.078;21.014;2023-05-19T03:03:05;166204.31;;;9.34;100.00
45255;BME280;30989;52.078;21.014;2023-05-19T03:05:30;166204.31;;;9.34;100.00
45255;BME280;30989;52.078;21.014;2023-05-19T03:07:56;166215.00;;;9.38;100.00
45255;BME280;30989;52.078;21.014;2023-05-19T03:10:21;166219.03;;;9.40;100.00
45255;BME280;30989;52.078;21.014;2023-05-19T03:12:47;166225.72;;;9.43;100.00
45255;BME280;30989;52.078;21.014;2023-05-19T03:15:13;166228.38;;;9.44;100.00
45255;BME280;30989;52.078;21.014;2023-05-19T03:17:39;166223.03;;;9.42;100.00
45255;BME280;30989;52.078;21.014;2023-05-19T03:20:06;166236.41;;;9.47;100.00
45255;BME280;30989;52.078;21.014;2023-05-19T03:22:32;166237.75;;;9.47;100.00
45255;BME280;30989;52.078;21.014;2023-05-19T03:24:57;166231.06;;;9.45;100.00
45255;BME280;30989;52.078;21.014;2023-05-19T03:27:23;166239.09;;;9.48;100.00
45255;BME280;30989;52.078;21.014;2023-05-19T03:29:48;166236.41;;;9.47;100.00
45255;BME280;30989;52.078;21.014;2023-05-19T03:32:14;166240.44;;;9.48;100.00
45255;BME280;30989;52.078;21.014;2023-05-19T03:34:40;166241.78;;;9.49;100.00
45255;BME280;30989;52.078;21.014;2023-05-19T03:37:05;166251.16;;;9.52;100.00
45255;BME280;30989;52.078;21.014;2023-05-19T03:39:34;166255.16;;;9.54;100.00
45255;BME280;30989;52.078;21.014;2023-05-19T03:42:00;166252.47;;;9.53;100.00
45255;BME280;30989;52.078;21.014;2023-05-19T03:44:25;166255.16;;;9.54;100.00
45255;BME280;30989;52.078;21.014;2023-05-19T03:46:51;166263.19;;;9.57;100.00
45255;BME280;30989;52.078;21.014;2023-05-19T03:49:35;166264.53;;;9.57;100.00
45255;BME280;30989;52.078;21.014;2023-05-19T03:52:19;166267.22;;;9.58;100.00
45255;BME280;30989;52.078;21.014;2023-05-19T03:54:56;166283.28;;;9.64;100.00
45255;BME280;30989;52.078;21.014;2023-05-19T03:57:22;166281.94;;;9.64;100.00
45255;BME280;30989;52.078;21.014;2023-05-19T03:59:47;166284.59;;;9.65;100.00
45255;BME280;30989;52.078;21.014;2023-05-19T04:02:13;166276.56;;;9.62;100.00
45255;BME280;30989;52.078;21.014;2023-05-19T04:04:38;166292.63;;;9.68;100.00
45255;BME280;30989;52.078;21.014;2023-05-19T04:07:04;166284.59;;;9.65;100.00
45255;BME280;30989;52.078;21.014;2023-05-19T04:09:29;166304.69;;;9.73;100.00
45255;BME280;30989;52.078;21.014;2023-05-19T04:11:56;166304.69;;;9.73;100.00
45255;BME280;30989;52.078;21.014;2023-05-19T04:14:22;166308.69;;;9.74;100.00
45255;BME280;30989;52.078;21.014;2023-05-19T04:16:48;166314.06;;;9.76;100.00
45255;BME280;30989;52.078;21.014;2023-05-19T04:19:14;166314.06;;;9.76;100.00
45255;BME280;30989;52.078;21.014;2023-05-19T04:21:39;166332.81;;;9.83;100.00
45255;BME280;30989;52.078;21.014;2023-05-19T04:24:05;166331.47;;;9.83;100.00
45255;BME280;30989;52.078;21.014;2023-05-19T04:26:31;166330.13;;;9.82;100.00
45255;BME280;30989;52.078;21.014;2023-05-19T04:28:59;166338.16;;;9.85;100.00
45255;BME280;30989;52.078;21.014;2023-05-19T04:31:26;166342.16;;;9.87;100.00
45255;BME280;30989;52.078;21.014;2023-05-19T04:33:52;166338.16;;;9.85;100.00
45255;BME280;30989;52.078;21.014;2023-05-19T04:36:18;166330.13;;;9.82;100.00
45255;BME280;30989;52.078;21.014;2023-05-19T04:38:46;166340.84;;;9.86;100.00
45255;BME280;30989;52.078;21.014;2023-05-19T04:41:13;166362.25;;;9.94;100.00
45255;BME280;30989;52.078;21.014;2023-05-19T04:43:40;166370.28;;;9.97;100.00
45255;BME280;30989;52.078;21.014;2023-05-19T04:46:07;166378.31;;;10.00;100.00
45255;BME280;30989;52.078;21.014;2023-05-19T04:48:35;166378.31;;;10.00;100.00
45255;BME280;30989;52.078;21.014;2023-05-19T04:51:00;166375.63;;;9.99;100.00
45255;BME280;30989;52.078;21.014;2023-05-19T04:53:27;166375.63;;;9.99;100.00
45255;BME280;30989;52.078;21.014;2023-05-19T04:55:54;166363.59;;;9.95;100.00
45255;BME280;30989;52.078;21.014;2023-05-19T04:58:21;166351.53;;;9.90;100.00
45255;BME280;30989;52.078;21.014;2023-05-19T05:00:50;166342.16;;;9.87;100.00
45255;BME280;30989;52.078;21.014;2023-05-19T05:03:17;166336.81;;;9.85;100.00
45255;BME280;30989;52.078;21.014;2023-05-19T05:05:42;166326.09;;;9.81;100.00
45255;BME280;30989;52.078;21.014;2023-05-19T05:08:09;166328.78;;;9.82;100.00
45255;BME280;30989;52.078;21.014;2023-05-19T05:10:39;166331.47;;;9.83;100.00
45255;BME280;30989;52.078;21.014;2023-05-19T05:13:04;166326.09;;;9.81;100.00
45255;BME280;30989;52.078;21.014;2023-05-19T05:15:30;166311.38;;;9.75;100.00
45255;BME280;30989;52.078;21.014;2023-05-19T05:17:58;166315.41;;;9.77;100.00
45255;BME280;30989;52.078;21.014;2023-05-19T05:20:24;166311.38;;;9.75;100.00
45255;BME280;30989;52.078;21.014;2023-05-19T05:22:50;166292.63;;;9.68;100.00
45255;BME280;30989;52.078;21.014;2023-05-19T05:25:17;166306.03;;;9.73;100.00
45255;BME280;30989;52.078;21.014;2023-05-19T05:27:43;166311.38;;;9.75;100.00
45255;BME280;30989;52.078;21.014;2023-05-19T05:30:08;166311.38;;;9.75;100.00
45255;BME280;30989;52.078;21.014;2023-05-19T05:32:35;166319.41;;;9.78;100.00
45255;BME280;30989;52.078;21.014;2023-05-19T05:35:06;166322.09;;;9.79;100.00
45255;BME280;30989;52.078;21.014;2023-05-19T05:37:32;166326.09;;;9.81;100.00
45255;BME280;30989;52.078;21.014;2023-05-19T05:39:57;166332.81;;;9.83;100.00
45255;BME280;30989;52.078;21.014;2023-05-19T05:42:23;166352.88;;;9.91;100.00
45255;BME280;30989;52.078;21.014;2023-05-19T05:44:49;166362.25;;;9.94;100.00
45255;BME280;30989;52.078;21.014;2023-05-19T05:47:16;166364.94;;;9.95;100.00
45255;BME280;30989;52.078;21.014;2023-05-19T05:49:43;166383.66;;;10.02;100.00
45255;BME280;30989;52.078;21.014;2023-05-19T05:52:14;166366.28;;;9.96;100.00
45255;BME280;30989;52.078;21.014;2023-05-19T05:54:44;166364.94;;;9.95;100.00
45255;BME280;30989;52.078;21.014;2023-05-19T05:57:11;166366.28;;;9.96;100.00
45255;BME280;30989;52.078;21.014;2023-05-19T05:59:38;166362.25;;;9.94;100.00
45255;BME280;30989;52.078;21.014;2023-05-19T06:02:05;166367.59;;;9.96;100.00
45255;BME280;30989;52.078;21.014;2023-05-19T06:04:32;166383.66;;;10.02;100.00
45255;BME280;30989;52.078;21.014;2023-05-19T06:06:57;166390.38;;;10.05;100.00
45255;BME280;30989;52.078;21.014;2023-05-19T06:09:28;166391.72;;;10.06;100.00
45255;BME280;30989;52.078;21.014;2023-05-19T06:11:57;166402.41;;;10.10;100.00
45255;BME280;30989;52.078;21.014;2023-05-19T06:14:26;166399.75;;;10.09;100.00
45255;BME280;30989;52.078;21.014;2023-05-19T06:17:14;166395.72;;;10.07;100.00
45255;BME280;30989;52.078;21.014;2023-05-19T06:19:39;166394.38;;;10.07;100.00
45255;BME280;30989;52.078;21.014;2023-05-19T06:22:05;166402.41;;;10.10;100.00
45255;BME280;30989;52.078;21.014;2023-05-19T06:24:32;166418.50;;;10.16;100.00
45255;BME280;30989;52.078;21.014;2023-05-19T06:26:57;166427.84;;;10.19;100.00
45255;BME280;30989;52.078;21.014;2023-05-19T06:29:23;166435.94;;;10.22;100.00
45255;BME280;30989;52.078;21.014;2023-05-19T06:31:51;166445.31;;;10.26;100.00
45255;BME280;30989;52.078;21.014;2023-05-19T06:34:16;166457.38;;;10.30;100.00
45255;BME280;30989;52.078;21.014;2023-05-19T06:36:43;166478.78;;;10.39;100.00
45255;BME280;30989;52.078;21.014;2023-05-19T06:39:09;166482.88;;;10.40;100.00
45255;BME280;30989;52.078;21.014;2023-05-19T06:41:35;166478.78;;;10.39;100.00
45255;BME280;30989;52.078;21.014;2023-05-19T06:44:05;166461.38;;;10.32;100.00
45255;BME280;30989;52.078;21.014;2023-05-19T06:46:33;166464.06;;;10.33;100.00
45255;BME280;30989;52.078;21.014;2023-05-19T06:48:59;166469.41;;;10.35;100.00
45255;BME280;30989;52.078;21.014;2023-05-19T06:51:28;166478.78;;;10.39;100.00
45255;BME280;30989;52.078;21.014;2023-05-19T06:53:55;166477.44;;;10.38;100.00
45255;BME280;30989;52.078;21.014;2023-05-19T06:56:21;166485.53;;;10.41;100.00
45255;BME280;30989;52.078;21.014;2023-05-19T06:58:47;166498.94;;;10.46;100.00
45255;BME280;30989;52.078;21.014;2023-05-19T07:01:13;166504.28;;;10.48;100.00
45255;BME280;30989;52.078;21.014;2023-05-19T07:03:44;166512.31;;;10.51;100.00
45255;BME280;30989;52.078;21.014;2023-05-19T07:06:11;166515.00;;;10.52;100.00
45255;BME280;30989;52.078;21.014;2023-05-19T07:08:36;166520.34;;;10.54;100.00
45255;BME280;30989;52.078;21.014;2023-05-19T07:11:03;166544.47;;;10.63;100.00
45255;BME280;30989;52.078;21.014;2023-05-19T07:13:29;166541.78;;;10.62;100.00
45255;BME280;30989;52.078;21.014;2023-05-19T07:15:55;166563.22;;;10.71;100.00
45255;BME280;30989;52.078;21.014;2023-05-19T07:18:21;166565.91;;;10.72;100.00
45255;BME280;30989;52.078;21.014;2023-05-19T07:20:46;166602.06;;;10.85;100.00
45255;BME280;30989;52.078;21.014;2023-05-19T07:23:12;166622.16;;;10.93;100.00
45255;BME280;30989;52.078;21.014;2023-05-19T07:25:37;166632.88;;;10.97;100.00
45255;BME280;30989;52.078;21.014;2023-05-19T07:28:03;166643.59;;;11.01;100.00
45255;BME280;30989;52.078;21.014;2023-05-19T07:30:28;166648.97;;;11.03;100.00
45255;BME280;30989;52.078;21.014;2023-05-19T07:32:54;166632.88;;;10.97;100.00
45255;BME280;30989;52.078;21.014;2023-05-19T07:35:20;166616.81;;;10.91;100.00
45255;BME280;30989;52.078;21.014;2023-05-19T07:37:47;166590.00;;;10.81;100.00
45255;BME280;30989;52.078;21.014;2023-05-19T07:40:13;166615.47;;;10.90;100.00
45255;BME280;30989;52.078;21.014;2023-05-19T07:42:39;166616.81;;;10.91;100.00
45255;BME280;30989;52.078;21.014;2023-05-19T07:45:05;166620.81;;;10.92;100.00
45255;BME280;30989;52.078;21.014;2023-05-19T07:47:30;166626.19;;;10.94;100.00
45255;BME280;30989;52.078;21.014;2023-05-19T07:49:55;166636.91;;;10.98;100.00
45255;BME280;30989;52.078;21.014;2023-05-19T07:52:21;166626.19;;;10.94;100.00
45255;BME280;30989;52.078;21.014;2023-05-19T07:54:46;166624.84;;;10.94;100.00
45255;BME280;30989;52.078;21.014;2023-05-19T07:57:12;166623.50;;;10.93;100.00
45255;BME280;30989;52.078;21.014;2023-05-19T07:59:39;166639.56;;;11.00;100.00
45255;BME280;30989;52.078;21.014;2023-05-19T08:02:04;166648.97;;;11.03;100.00
45255;BME280;30989;52.078;21.014;2023-05-19T08:04:30;166648.97;;;11.03;100.00
45255;BME280;30989;52.078;21.014;2023-05-19T08:06:56;166651.63;;;11.04;100.00
45255;BME280;30989;52.078;21.014;2023-05-19T08:09:21;166654.31;;;11.05;100.00
45255;BME280;30989;52.078;21.014;2023-05-19T08:11:47;166644.94;;;11.02;100.00
45255;BME280;30989;52.078;21.014;2023-05-19T08:14:13;166657.00;;;11.06;100.00
45255;BME280;30989;52.078;21.014;2023-05-19T08:16:38;166665.03;;;11.09;100.00
45255;BME280;30989;52.078;21.014;2023-05-19T08:19:06;166669.06;;;11.11;100.00
45255;BME280;30989;52.078;21.014;2023-05-19T08:21:31;166654.31;;;11.05;100.00
45255;BME280;30989;52.078;21.014;2023-05-19T08:24:00;166678.44;;;11.14;100.00
45255;BME280;30989;52.078;21.014;2023-05-19T08:26:27;166683.78;;;11.16;100.00
45255;BME280;30989;52.078;21.014;2023-05-19T08:28:52;166689.16;;;11.18;100.00
45255;BME280;30989;52.078;21.014;2023-05-19T08:31:17;166691.84;;;11.19;100.00
45255;BME280;30989;52.078;21.014;2023-05-19T08:33:43;166705.22;;;11.24;100.00
45255;BME280;30989;52.078;21.014;2023-05-19T08:36:09;166718.63;;;11.29;100.00
45255;BME280;30989;52.078;21.014;2023-05-19T08:38:35;166740.06;;;11.38;100.00
45255;BME280;30989;52.078;21.014;2023-05-19T08:41:01;166760.16;;;11.45;100.00
45255;BME280;30989;52.078;21.014;2023-05-19T08:43:26;166782.94;;;11.54;100.00
45255;BME280;30989;52.078;21.014;2023-05-19T08:45:52;166799.03;;;11.60;100.00
45255;BME280;30989;52.078;21.014;2023-05-19T08:48:18;166813.78;;;11.66;100.00
45255;BME280;30989;52.078;21.014;2023-05-19T08:51:03;166828.50;;;11.71;100.00
45255;BME280;30989;52.078;21.014;2023-05-19T08:53:47;166816.44;;;11.67;100.00
45255;BME280;30989;52.078;21.014;2023-05-19T08:56:18;166854.03;;;11.81;100.00
45255;BME280;30989;52.078;21.014;2023-05-19T08:58:48;166862.06;;;11.84;100.00
45255;BME280;30989;52.078;21.014;2023-05-19T09:01:14;166866.09;;;11.85;100.00
45255;BME280;30989;52.078;21.014;2023-05-19T09:03:43;166906.31;;;12.01;100.00
45255;BME280;30989;52.078;21.014;2023-05-19T09:06:09;166911.69;;;12.03;100.00
45255;BME280;30989;52.078;21.014;2023-05-19T09:08:39;166913.00;;;12.03;100.00
45255;BME280;30989;52.078;21.014;2023-05-19T09:11:05;166914.34;;;12.04;100.00
45255;BME280;30989;52.078;21.014;2023-05-19T09:13:30;166919.72;;;12.06;100.00
45255;BME280;30989;52.078;21.014;2023-05-19T09:15:56;166913.00;;;12.03;100.00
45255;BME280;30989;52.078;21.014;2023-05-19T09:18:23;166900.94;;;11.99;100.00
45255;BME280;30989;52.078;21.014;2023-05-19T09:20:49;166896.94;;;11.97;100.00
45255;BME280;30989;52.078;21.014;2023-05-19T09:23:16;166891.56;;;11.95;100.00
45255;BME280;30989;52.078;21.014;2023-05-19T09:25:51;166883.53;;;11.92;100.00
45255;BME280;30989;52.078;21.014;2023-05-19T09:31:10;166879.50;;;11.90;100.00
45255;BME280;30989;52.078;21.014;2023-05-19T09:33:41;166890.22;;;11.94;100.00
45255;BME280;30989;52.078;21.014;2023-05-19T09:36:07;166896.94;;;11.97;100.00
45255;BME280;30989;52.078;21.014;2023-05-19T09:38:34;166906.31;;;12.01;100.00
45255;BME280;30989;52.078;21.014;2023-05-19T09:41:00;166903.63;;;12.00;100.00
45255;BME280;30989;52.078;21.014;2023-05-19T09:43:29;166900.94;;;11.99;100.00
45255;BME280;30989;52.078;21.014;2023-05-19T09:46:06;166903.63;;;12.00;100.00
45255;BME280;30989;52.078;21.014;2023-05-19T09:48:33;166917.03;;;12.05;100.00
45255;BME280;30989;52.078;21.014;2023-05-19T09:51:00;166935.81;;;12.12;100.00
45255;BME280;30989;52.078;21.014;2023-05-19T09:53:25;166967.97;;;12.24;100.00
45255;BME280;30989;52.078;21.014;2023-05-19T09:55:54;166993.44;;;12.34;100.00
45255;BME280;30989;52.078;21.014;2023-05-19T09:58:23;167014.91;;;12.42;100.00
45255;BME280;30989;52.078;21.014;2023-05-19T10:00:49;167013.56;;;12.41;100.00
45255;BME280;30989;52.078;21.014;2023-05-19T10:03:15;167028.31;;;12.47;100.00
45255;BME280;30989;52.078;21.014;2023-05-19T10:05:42;167052.44;;;12.56;100.00
45255;BME280;30989;52.078;21.014;2023-05-19T10:08:08;167068.53;;;12.62;100.00
45255;BME280;30989;52.078;21.014;2023-05-19T10:10:36;167099.38;;;12.74;100.00
45255;BME280;30989;52.078;21.014;2023-05-19T10:13:02;167094.03;;;12.72;100.00
45255;BME280;30989;52.078;21.014;2023-05-19T10:15:30;167127.56;;;12.84;100.00
45255;BME280;30989;52.078;21.014;2023-05-19T10:17:57;167162.44;;;12.98;100.00
45255;BME280;30989;52.078;21.014;2023-05-19T10:20:25;167185.22;;;13.06;100.00
45255;BME280;30989;52.078;21.014;2023-05-19T10:22:51;167208.03;;;13.15;100.00
45255;BME280;30989;52.078;21.014;2023-05-19T10:25:17;167238.94;;;13.27;100.00
45255;BME280;30989;52.078;21.014;2023-05-19T10:27:58;167241.63;;;13.28;100.00
45255;BME280;30989;52.078;21.014;2023-05-19T10:30:32;167257.72;;;13.34;100.00
45255;BME280;30989;52.078;21.014;2023-05-19T10:32:59;167249.69;;;13.31;100.00
45255;BME280;30989;52.078;21.014;2023-05-19T10:35:32;167226.88;;;13.22;100.00
45255;BME280;30989;52.078;21.014;2023-05-19T10:46:25;167208.03;;;13.15;100.00
45255;BME280;30989;52.078;21.014;2023-05-19T10:48:53;167220.16;;;13.19;100.00
45255;BME280;30989;52.078;21.014;2023-05-19T10:51:18;167238.94;;;13.27;100.00
45255;BME280;30989;52.078;21.014;2023-05-19T10:53:44;167261.75;;;13.35;100.00
45255;BME280;30989;52.078;21.014;2023-05-19T10:56:31;167280.53;;;13.42;100.00
45255;BME280;30989;52.078;21.014;2023-05-19T10:58:58;167284.56;;;13.44;100.00
45255;BME280;30989;52.078;21.014;2023-05-19T11:01:35;167310.06;;;13.53;100.00
45255;BME280;30989;52.078;21.014;2023-05-19T11:04:07;167332.88;;;13.62;100.00
45255;BME280;30989;52.078;21.014;2023-05-19T11:06:36;167346.28;;;13.67;100.00
45255;BME280;30989;52.078;21.014;2023-05-19T11:09:14;167383.84;;;13.81;100.00
45255;BME280;30989;52.078;21.014;2023-05-19T11:11:46;167405.31;;;13.90;100.00
45255;BME280;30989;52.078;21.014;2023-05-19T11:14:16;167429.47;;;13.99;100.00
45255;BME280;30989;52.078;21.014;2023-05-19T11:16:45;167438.88;;;14.02;100.00
45255;BME280;30989;52.078;21.014;2023-05-19T11:19:31;167455.00;;;14.08;100.00
45255;BME280;30989;52.078;21.014;2023-05-19T11:22:08;167440.22;;;14.03;100.00
45255;BME280;30989;52.078;21.014;2023-05-19T11:24:44;167397.28;;;13.86;100.00
45255;BME280;30989;52.078;21.014;2023-05-19T11:27:18;167378.50;;;13.79;100.00
45255;BME280;30989;52.078;21.014;2023-05-19T11:29:43;167382.50;;;13.81;100.00
45255;BME280;30989;52.078;21.014;2023-05-19T11:32:10;167414.72;;;13.93;100.00
45255;BME280;30989;52.078;21.014;2023-05-19T11:34:36;167421.44;;;13.96;100.00
45255;BME280;30989;52.078;21.014;2023-05-19T11:37:03;167402.66;;;13.88;100.00
45255;BME280;30989;52.078;21.014;2023-05-19T11:39:30;167379.81;;;13.80;100.00
45255;BME280;30989;52.078;21.014;2023-05-19T11:41:56;167390.56;;;13.84;100.00
45255;BME280;30989;52.078;21.014;2023-05-19T11:44:21;167410.69;;;13.92;100.00
45255;BME280;30989;52.078;21.014;2023-05-19T11:46:47;167434.84;;;14.01;100.00
45255;BME280;30989;52.078;21.014;2023-05-19T11:49:14;167412.03;;;13.92;100.00
45255;BME280;30989;52.078;21.014;2023-05-19T11:51:42;167389.22;;;13.83;100.00
45255;BME280;30989;52.078;21.014;2023-05-19T11:54:09;167378.50;;;13.79;100.00
45255;BME280;30989;52.078;21.014;2023-05-19T11:56:39;167389.22;;;13.83;100.00
45255;BME280;30989;52.078;21.014;2023-05-19T11:59:05;167391.91;;;13.84;100.00
45255;BME280;30989;52.078;21.014;2023-05-19T12:01:32;167389.22;;;13.83;100.00
45255;BME280;30989;52.078;21.014;2023-05-19T12:03:58;167413.38;;;13.93;100.00
45255;BME280;30989;52.078;21.014;2023-05-19T12:06:25;167414.72;;;13.93;100.00
45255;BME280;30989;52.078;21.014;2023-05-19T12:08:51;167432.16;;;14.00;100.00
45255;BME280;30989;52.078;21.014;2023-05-19T12:11:17;167426.81;;;13.98;100.00
45255;BME280;30989;52.078;21.014;2023-05-19T12:13:43;167402.66;;;13.88;100.00
45255;BME280;30989;52.078;21.014;2023-05-19T12:16:09;167393.25;;;13.85;100.00
45255;BME280;30989;52.078;21.014;2023-05-19T12:18:38;167401.31;;;13.88;100.00
45255;BME280;30989;52.078;21.014;2023-05-19T12:21:04;167424.13;;;13.97;100.00
45255;BME280;30989;52.078;21.014;2023-05-19T12:23:31;167432.16;;;14.00;100.00
45255;BME280;30989;52.078;21.014;2023-05-19T12:25:58;167432.16;;;14.00;100.00
45255;BME280;30989;52.078;21.014;2023-05-19T12:28:24;167444.25;;;14.04;100.00
45255;BME280;30989;52.078;21.014;2023-05-19T12:30:50;167485.84;;;14.20;100.00
45255;BME280;30989;52.078;21.014;2023-05-19T12:33:17;167500.63;;;14.26;100.00
45255;BME280;30989;52.078;21.014;2023-05-19T12:35:44;167500.63;;;14.26;100.00
45255;BME280;30989;52.078;21.014;2023-05-19T12:38:10;167512.72;;;14.30;100.00
45255;BME280;30989;52.078;21.014;2023-05-19T12:40:38;167511.38;;;14.30;100.00
45255;BME280;30989;52.078;21.014;2023-05-19T12:43:04;167501.97;;;14.26;100.00
45255;BME280;30989;52.078;21.014;2023-05-19T12:45:36;167504.66;;;14.27;100.00
45255;BME280;30989;52.078;21.014;2023-05-19T12:48:07;167496.59;;;14.24;100.00
45255;BME280;30989;52.078;21.014;2023-05-19T12:50:36;167475.13;;;14.16;100.00
45255;BME280;30989;52.078;21.014;2023-05-19T12:53:02;167484.50;;;14.19;100.00
45255;BME280;30989;52.078;21.014;2023-05-19T12:55:29;167473.78;;;14.15;100.00
45255;BME280;30989;52.078;21.014;2023-05-19T12:57:54;167457.66;;;14.09;100.00
45255;BME280;30989;52.078;21.014;2023-05-19T13:00:23;167442.91;;;14.04;100.00
45255;BME280;30989;52.078;21.014;2023-05-19T13:03:00;167445.59;;;14.05;100.00